sensor_id;sensor_type;location;lat;lon;timestamp;temperature;humidity
36292;DHT22;22327;51.208;6.418;2022-08-30T00:00:10;21.60;67.20
36292;DHT22;22327;51.208;6.418;2022-08-30T00:02:55;21.60;67.20
36292;DHT22;22327;51.208;6.418;2022-08-30T00:05:22;21.50;68.20
36292;DHT22;22327;51.208;6.418;2022-08-30T00:07:48;21.50;68.20
36292;DHT22;22327;51.208;6.418;2022-08-30T00:10:14;21.50;68.70
36292;DHT22;22327;51.208;6.418;2022-08-30T00:12:40;21.50;69.30
36292;DHT22;22327;51.208;6.418;2022-08-30T00:15:08;21.60;70.00
36292;DHT22;22327;51.208;6.418;2022-08-30T00:17:35;21.50;69.90
36292;DHT22;22327;51.208;6.418;2022-08-30T00:20:02;21.50;70.60
36292;DHT22;22327;51.208;6.418;2022-08-30T00:22:28;21.60;70.80
36292;DHT22;22327;51.208;6.418;2022-08-30T00:24:55;21.60;70.90
36292;DHT22;22327;51.208;6.418;2022-08-30T00:27:21;21.60;71.60
36292;DHT22;22327;51.208;6.418;2022-08-30T00:29:46;21.60;71.50
36292;DHT22;22327;51.208;6.418;2022-08-30T00:32:12;21.60;71.90
36292;DHT22;22327;51.208;6.418;2022-08-30T00:34:40;21.60;72.50
36292;DHT22;22327;51.208;6.418;2022-08-30T00:37:06;21.70;72.70
36292;DHT22;22327;51.208;6.418;2022-08-30T00:39:31;21.70;73.00
36292;DHT22;22327;51.208;6.418;2022-08-30T00:42:00;21.70;72.90
36292;DHT22;22327;51.208;6.418;2022-08-30T00:44:26;21.70;73.10
36292;DHT22;22327;51.208;6.418;2022-08-30T00:46:51;21.70;73.20
36292;DHT22;22327;51.208;6.418;2022-08-30T00:49:17;21.80;73.50
36292;DHT22;22327;51.208;6.418;2022-08-30T00:51:43;21.70;73.80
36292;DHT22;22327;51.208;6.418;2022-08-30T00:54:09;21.70;74.10
36292;DHT22;22327;51.208;6.418;2022-08-30T00:56:35;21.70;74.40
36292;DHT22;22327;51.208;6.418;2022-08-30T00:59:02;21.80;74.60
36292;DHT22;22327;51.208;6.418;2022-08-30T01:01:29;21.80;74.90
36292;DHT22;22327;51.208;6.418;2022-08-30T01:03:56;21.70;74.80
36292;DHT22;22327;51.208;6.418;2022-08-30T01:06:22;21.70;75.40
36292;DHT22;22327;51.208;6.418;2022-08-30T01:08:50;21.70;75.60
36292;DHT22;22327;51.208;6.418;2022-08-30T01:11:19;21.70;75.70
36292;DHT22;22327;51.208;6.418;2022-08-30T01:13:45;21.70;76.00
36292;DHT22;22327;51.208;6.418;2022-08-30T01:16:12;21.60;76.10
36292;DHT22;22327;51.208;6.418;2022-08-30T01:18:37;21.60;76.50
36292;DHT22;22327;51.208;6.418;2022-08-30T01:23:34;21.50;77.20
36292;DHT22;22327;51.208;6.418;2022-08-30T01:26:02;21.40;77.70
36292;DHT22;22327;51.208;6.418;2022-08-30T01:28:30;21.40;78.10
36292;DHT22;22327;51.208;6.418;2022-08-30T01:30:56;21.30;78.40
36292;DHT22;22327;51.208;6.418;2022-08-30T01:33:22;21.30;79.00
36292;DHT22;22327;51.208;6.418;2022-08-30T01:35:55;21.30;79.40
36292;DHT22;22327;51.208;6.418;2022-08-30T01:38:23;21.30;79.50
36292;DHT22;22327;51.208;6.418;2022-08-30T01:40:59;21.30;79.70
36292;DHT22;22327;51.208;6.418;2022-08-30T01:43:24;21.30;80.10
36292;DHT22;22327;51.208;6.418;2022-08-30T01:45:50;21.20;80.30
36292;DHT22;22327;51.208;6.418;2022-08-30T01:48:16;21.30;80.10
36292;DHT22;22327;51.208;6.418;2022-08-30T01:50:42;21.20;80.30
36292;DHT22;22327;51.208;6.418;2022-08-30T01:53:09;21.20;80.50
36292;DHT22;22327;51.208;6.418;2022-08-30T01:55:35;21.20;80.70
36292;DHT22;22327;51.208;6.418;2022-08-30T01:58:02;21.10;81.10
36292;DHT22;22327;51.208;6.418;2022-08-30T02:00:28;21.10;81.40
36292;DHT22;22327;51.208;6.418;2022-08-30T02:02:55;21.00;81.80
36292;DHT22;22327;51.208;6.418;2022-08-30T02:05:22;21.00;82.30
36292;DHT22;22327;51.208;6.418;2022-08-30T02:07:48;21.00;82.80
36292;DHT22;22327;51.208;6.418;2022-08-30T02:10:13;20.90;83.00
36292;DHT22;22327;51.208;6.418;2022-08-30T02:12:40;20.90;83.10
36292;DHT22;22327;51.208;6.418;2022-08-30T02:15:06;20.80;83.40
36292;DHT22;22327;51.208;6.418;2022-08-30T02:17:32;20.80;83.80
36292;DHT22;22327;51.208;6.418;2022-08-30T02:19:57;20.80;84.00
36292;DHT22;22327;51.208;6.418;2022-08-30T02:22:23;20.80;84.00
36292;DHT22;22327;51.208;6.418;2022-08-30T02:24:48;20.80;84.40
36292;DHT22;22327;51.208;6.418;2022-08-30T02:27:14;20.70;84.80
36292;DHT22;22327;51.208;6.418;2022-08-30T02:29:39;20.70;85.00
36292;DHT22;22327;51.208;6.418;2022-08-30T02:32:05;20.70;85.20
36292;DHT22;22327;51.208;6.418;2022-08-30T02:34:31;20.70;85.20
36292;DHT22;22327;51.208;6.418;2022-08-30T02:36:56;20.70;85.70
36292;DHT22;22327;51.208;6.418;2022-08-30T02:39:22;20.70;85.40
36292;DHT22;22327;51.208;6.418;2022-08-30T02:41:48;20.60;85.70
36292;DHT22;22327;51.208;6.418;2022-08-30T02:44:14;20.60;86.10
36292;DHT22;22327;51.208;6.418;2022-08-30T02:46:40;20.60;86.00
36292;DHT22;22327;51.208;6.418;2022-08-30T02:49:06;20.60;86.20
36292;DHT22;22327;51.208;6.418;2022-08-30T02:51:33;20.60;86.30
36292;DHT22;22327;51.208;6.418;2022-08-30T02:53:59;20.60;86.50
36292;DHT22;22327;51.208;6.418;2022-08-30T02:56:24;20.60;86.50
36292;DHT22;22327;51.208;6.418;2022-08-30T02:58:50;20.50;87.10
36292;DHT22;22327;51.208;6.418;2022-08-30T03:01:15;20.50;86.90
36292;DHT22;22327;51.208;6.418;2022-08-30T03:03:43;20.50;87.10
36292;DHT22;22327;51.208;6.418;2022-08-30T03:06:09;20.50;87.50
36292;DHT22;22327;51.208;6.418;2022-08-30T03:08:35;20.50;87.60
36292;DHT22;22327;51.208;6.418;2022-08-30T03:11:02;20.40;87.40
36292;DHT22;22327;51.208;6.418;2022-08-30T03:13:27;20.40;87.60
36292;DHT22;22327;51.208;6.418;2022-08-30T03:15:54;20.40;88.00
36292;DHT22;22327;51.208;6.418;2022-08-30T03:18:20;20.30;88.20
36292;DHT22;22327;51.208;6.418;2022-08-30T03:20:46;20.30;88.60
36292;DHT22;22327;51.208;6.418;2022-08-30T03:23:12;20.20;88.50
36292;DHT22;22327;51.208;6.418;2022-08-30T03:25:38;20.20;88.80
36292;DHT22;22327;51.208;6.418;2022-08-30T03:28:05;20.20;88.90
36292;DHT22;22327;51.208;6.418;2022-08-30T03:30:31;20.20;89.20
36292;DHT22;22327;51.208;6.418;2022-08-30T03:32:57;20.20;89.40
36292;DHT22;22327;51.208;6.418;2022-08-30T03:35:22;20.10;89.50
36292;DHT22;22327;51.208;6.418;2022-08-30T03:37:48;20.10;89.70
36292;DHT22;22327;51.208;6.418;2022-08-30T03:40:16;20.10;90.00
36292;DHT22;22327;51.208;6.418;2022-08-30T03:42:42;20.10;90.10
36292;DHT22;22327;51.208;6.418;2022-08-30T03:45:09;20.10;90.10
36292;DHT22;22327;51.208;6.418;2022-08-30T03:47:35;20.10;90.00
36292;DHT22;22327;51.208;6.418;2022-08-30T03:50:01;20.20;90.20
36292;DHT22;22327;51.208;6.418;2022-08-30T03:52:27;20.20;90.10
36292;DHT22;22327;51.208;6.418;2022-08-30T03:54:52;20.20;90.10
36292;DHT22;22327;51.208;6.418;2022-08-30T03:57:18;20.30;89.90
36292;DHT22;22327;51.208;6.418;2022-08-30T03:59:43;20.30;89.80
36292;DHT22;22327;51.208;6.418;2022-08-30T04:02:09;20.30;89.80
36292;DHT22;22327;51.208;6.418;2022-08-30T04:04:34;20.30;89.90
36292;DHT22;22327;51.208;6.418;2022-08-30T04:07:00;20.30;89.80
36292;DHT22;22327;51.208;6.418;2022-08-30T04:09:25;20.30;90.00
36292;DHT22;22327;51.208;6.418;2022-08-30T04:11:51;20.30;89.90
36292;DHT22;22327;51.208;6.418;2022-08-30T04:14:17;20.20;90.00
36292;DHT22;22327;51.208;6.418;2022-08-30T04:16:43;20.20;90.10
36292;DHT22;22327;51.208;6.418;2022-08-30T04:19:09;20.20;90.10
36292;DHT22;22327;51.208;6.418;2022-08-30T04:21:35;20.20;90.20
36292;DHT22;22327;51.208;6.418;2022-08-30T04:24:01;20.20;90.10
36292;DHT22;22327;51.208;6.418;2022-08-30T04:26:27;20.20;90.20
36292;DHT22;22327;51.208;6.418;2022-08-30T04:28:53;20.10;90.30
36292;DHT22;22327;51.208;6.418;2022-08-30T04:31:19;20.10;90.40
36292;DHT22;22327;51.208;6.418;2022-08-30T04:33:45;20.00;90.40
36292;DHT22;22327;51.208;6.418;2022-08-30T04:36:11;20.00;90.60
36292;DHT22;22327;51.208;6.418;2022-08-30T04:38:38;20.00;90.70
36292;DHT22;22327;51.208;6.418;2022-08-30T04:41:12;20.00;90.70
36292;DHT22;22327;51.208;6.418;2022-08-30T04:43:40;19.90;90.70
36292;DHT22;22327;51.208;6.418;2022-08-30T04:46:07;19.90;90.80
36292;DHT22;22327;51.208;6.418;2022-08-30T04:48:33;19.90;90.80
36292;DHT22;22327;51.208;6.418;2022-08-30T04:50:59;19.90;90.80
36292;DHT22;22327;51.208;6.418;2022-08-30T04:53:24;19.90;91.00
36292;DHT22;22327;51.208;6.418;2022-08-30T04:55:50;19.90;91.00
36292;DHT22;22327;51.208;6.418;2022-08-30T04:58:15;19.90;91.00
36292;DHT22;22327;51.208;6.418;2022-08-30T05:00:44;19.80;91.10
36292;DHT22;22327;51.208;6.418;2022-08-30T05:03:10;19.80;91.20
36292;DHT22;22327;51.208;6.418;2022-08-30T05:05:37;19.80;91.30
36292;DHT22;22327;51.208;6.418;2022-08-30T05:08:10;19.80;91.20
36292;DHT22;22327;51.208;6.418;2022-08-30T05:10:38;19.80;91.20
36292;DHT22;22327;51.208;6.418;2022-08-30T05:13:05;19.80;91.20
36292;DHT22;22327;51.208;6.418;2022-08-30T05:15:30;19.90;91.30
36292;DHT22;22327;51.208;6.418;2022-08-30T05:17:56;19.90;91.20
36292;DHT22;22327;51.208;6.418;2022-08-30T05:20:21;19.90;91.20
36292;DHT22;22327;51.208;6.418;2022-08-30T05:22:47;20.00;91.10
36292;DHT22;22327;51.208;6.418;2022-08-30T05:25:21;20.00;91.00
36292;DHT22;22327;51.208;6.418;2022-08-30T05:27:46;20.20;91.10
36292;DHT22;22327;51.208;6.418;2022-08-30T05:30:14;20.20;90.90
36292;DHT22;22327;51.208;6.418;2022-08-30T05:32:40;20.40;90.70
36292;DHT22;22327;51.208;6.418;2022-08-30T05:35:07;20.60;90.30
36292;DHT22;22327;51.208;6.418;2022-08-30T05:37:33;20.80;89.90
36292;DHT22;22327;51.208;6.418;2022-08-30T05:39:59;21.10;88.90
36292;DHT22;22327;51.208;6.418;2022-08-30T05:42:25;21.30;87.00
36292;DHT22;22327;51.208;6.418;2022-08-30T05:44:52;21.30;87.00
36292;DHT22;22327;51.208;6.418;2022-08-30T05:47:19;21.30;86.70
36292;DHT22;22327;51.208;6.418;2022-08-30T05:49:45;21.30;86.70
36292;DHT22;22327;51.208;6.418;2022-08-30T05:52:11;21.20;86.50
36292;DHT22;22327;51.208;6.418;2022-08-30T05:54:38;21.20;86.60
36292;DHT22;22327;51.208;6.418;2022-08-30T05:57:04;21.20;87.20
36292;DHT22;22327;51.208;6.418;2022-08-30T05:59:29;21.30;87.20
36292;DHT22;22327;51.208;6.418;2022-08-30T06:01:56;21.60;87.10
36292;DHT22;22327;51.208;6.418;2022-08-30T06:04:22;22.00;85.10
36292;DHT22;22327;51.208;6.418;2022-08-30T06:06:47;22.20;83.20
36292;DHT22;22327;51.208;6.418;2022-08-30T06:09:13;22.30;82.10
36292;DHT22;22327;51.208;6.418;2022-08-30T06:11:40;22.30;81.80
36292;DHT22;22327;51.208;6.418;2022-08-30T06:14:06;22.20;81.80
36292;DHT22;22327;51.208;6.418;2022-08-30T06:16:32;22.40;82.70
36292;DHT22;22327;51.208;6.418;2022-08-30T06:18:58;22.80;81.10
36292;DHT22;22327;51.208;6.418;2022-08-30T06:21:26;23.10;78.50
36292;DHT22;22327;51.208;6.418;2022-08-30T06:23:53;23.20;78.10
36292;DHT22;22327;51.208;6.418;2022-08-30T06:26:20;23.30;77.10
36292;DHT22;22327;51.208;6.418;2022-08-30T06:28:46;23.20;76.80
36292;DHT22;22327;51.208;6.418;2022-08-30T06:31:13;23.30;76.70
36292;DHT22;22327;51.208;6.418;2022-08-30T06:33:39;23.60;76.30
36292;DHT22;22327;51.208;6.418;2022-08-30T06:36:08;24.10;74.90
36292;DHT22;22327;51.208;6.418;2022-08-30T06:38:34;24.50;73.90
36292;DHT22;22327;51.208;6.418;2022-08-30T06:41:05;24.90;70.60
36292;DHT22;22327;51.208;6.418;2022-08-30T06:43:30;25.30;68.80
36292;DHT22;22327;51.208;6.418;2022-08-30T06:46:03;25.70;68.50
36292;DHT22;22327;51.208;6.418;2022-08-30T06:48:29;26.10;65.00
36292;DHT22;22327;51.208;6.418;2022-08-30T06:50:54;26.10;64.20
36292;DHT22;22327;51.208;6.418;2022-08-30T06:53:20;26.10;64.00
36292;DHT22;22327;51.208;6.418;2022-08-30T06:55:54;26.00;63.30
36292;DHT22;22327;51.208;6.418;2022-08-30T06:58:20;26.10;63.60
36292;DHT22;22327;51.208;6.418;2022-08-30T07:00:46;26.00;62.40
36292;DHT22;22327;51.208;6.418;2022-08-30T07:03:12;25.70;63.00
36292;DHT22;22327;51.208;6.418;2022-08-30T07:05:37;25.60;64.10
36292;DHT22;22327;51.208;6.418;2022-08-30T07:08:03;25.50;64.10
36292;DHT22;22327;51.208;6.418;2022-08-30T07:10:28;25.20;64.20
36292;DHT22;22327;51.208;6.418;2022-08-30T07:12:54;24.80;65.50
36292;DHT22;22327;51.208;6.418;2022-08-30T07:15:19;24.50;66.70
36292;DHT22;22327;51.208;6.418;2022-08-30T07:17:47;24.30;68.00
36292;DHT22;22327;51.208;6.418;2022-08-30T07:20:31;24.20;68.80
36292;DHT22;22327;51.208;6.418;2022-08-30T07:22:57;24.00;69.60
36292;DHT22;22327;51.208;6.418;2022-08-30T07:25:22;24.10;70.00
36292;DHT22;22327;51.208;6.418;2022-08-30T07:27:48;24.30;70.30
36292;DHT22;22327;51.208;6.418;2022-08-30T07:30:17;24.70;68.10
36292;DHT22;22327;51.208;6.418;2022-08-30T07:32:43;24.80;67.00
36292;DHT22;22327;51.208;6.418;2022-08-30T07:35:09;24.70;66.80
36292;DHT22;22327;51.208;6.418;2022-08-30T07:37:34;24.70;67.00
36292;DHT22;22327;51.208;6.418;2022-08-30T07:40:00;24.60;67.80
36292;DHT22;22327;51.208;6.418;2022-08-30T07:42:26;24.60;68.00
36292;DHT22;22327;51.208;6.418;2022-08-30T07:44:51;24.50;68.00
36292;DHT22;22327;51.208;6.418;2022-08-30T07:47:17;24.40;68.40
36292;DHT22;22327;51.208;6.418;2022-08-30T07:49:42;24.30;68.70
36292;DHT22;22327;51.208;6.418;2022-08-30T07:52:08;24.10;69.00
36292;DHT22;22327;51.208;6.418;2022-08-30T07:54:34;24.00;69.90
36292;DHT22;22327;51.208;6.418;2022-08-30T07:56:59;24.00;70.50
36292;DHT22;22327;51.208;6.418;2022-08-30T07:59:25;24.00;70.30
36292;DHT22;22327;51.208;6.418;2022-08-30T08:01:50;24.20;70.30
36292;DHT22;22327;51.208;6.418;2022-08-30T08:04:16;24.50;68.80
36292;DHT22;22327;51.208;6.418;2022-08-30T08:06:41;24.90;68.00
36292;DHT22;22327;51.208;6.418;2022-08-30T08:09:08;25.10;67.10
36292;DHT22;22327;51.208;6.418;2022-08-30T08:11:34;25.30;66.10
36292;DHT22;22327;51.208;6.418;2022-08-30T08:14:00;25.60;65.70
36292;DHT22;22327;51.208;6.418;2022-08-30T08:16:28;25.70;64.40
36292;DHT22;22327;51.208;6.418;2022-08-30T08:18:55;25.60;63.80
36292;DHT22;22327;51.208;6.418;2022-08-30T08:21:22;25.60;64.80
36292;DHT22;22327;51.208;6.418;2022-08-30T08:23:48;25.80;64.20
36292;DHT22;22327;51.208;6.418;2022-08-30T08:26:13;25.90;63.10
36292;DHT22;22327;51.208;6.418;2022-08-30T08:28:39;25.90;63.20
36292;DHT22;22327;51.208;6.418;2022-08-30T08:31:16;25.90;62.10
36292;DHT22;22327;51.208;6.418;2022-08-30T08:33:42;25.90;62.40
36292;DHT22;22327;51.208;6.418;2022-08-30T08:36:08;26.00;62.60
36292;DHT22;22327;51.208;6.418;2022-08-30T08:38:34;26.10;61.20
36292;DHT22;22327;51.208;6.418;2022-08-30T08:43:38;26.40;60.80
36292;DHT22;22327;51.208;6.418;2022-08-30T08:46:21;26.40;60.80
36292;DHT22;22327;51.208;6.418;2022-08-30T08:48:54;26.60;60.10
36292;DHT22;22327;51.208;6.418;2022-08-30T08:51:25;26.80;59.20
36292;DHT22;22327;51.208;6.418;2022-08-30T08:54:14;26.80;58.20
36292;DHT22;22327;51.208;6.418;2022-08-30T08:56:40;26.90;58.50
36292;DHT22;22327;51.208;6.418;2022-08-30T08:59:09;27.40;58.30
36292;DHT22;22327;51.208;6.418;2022-08-30T09:01:36;28.10;55.70
36292;DHT22;22327;51.208;6.418;2022-08-30T09:04:11;28.60;53.90
36292;DHT22;22327;51.208;6.418;2022-08-30T09:09:10;29.10;50.90
36292;DHT22;22327;51.208;6.418;2022-08-30T09:11:36;28.80;51.40
36292;DHT22;22327;51.208;6.418;2022-08-30T09:14:05;28.80;51.40
36292;DHT22;22327;51.208;6.418;2022-08-30T09:16:57;28.70;51.70
36292;DHT22;22327;51.208;6.418;2022-08-30T09:24:42;29.20;51.70
36292;DHT22;22327;51.208;6.418;2022-08-30T09:27:28;29.20;50.40
36292;DHT22;22327;51.208;6.418;2022-08-30T09:32:38;29.40;51.10
36292;DHT22;22327;51.208;6.418;2022-08-30T09:35:05;29.80;49.30
36292;DHT22;22327;51.208;6.418;2022-08-30T09:37:46;29.80;48.00
36292;DHT22;22327;51.208;6.418;2022-08-30T09:40:23;29.90;49.40
36292;DHT22;22327;51.208;6.418;2022-08-30T09:43:08;29.50;47.80
36292;DHT22;22327;51.208;6.418;2022-08-30T09:45:37;29.30;48.60
36292;DHT22;22327;51.208;6.418;2022-08-30T09:48:31;29.00;48.90
36292;DHT22;22327;51.208;6.418;2022-08-30T09:56:38;28.20;51.10
36292;DHT22;22327;51.208;6.418;2022-08-30T10:02:03;27.80;51.30
36292;DHT22;22327;51.208;6.418;2022-08-30T10:04:42;27.70;52.10
36292;DHT22;22327;51.208;6.418;2022-08-30T10:10:45;27.80;51.60
36292;DHT22;22327;51.208;6.418;2022-08-30T10:23:36;27.70;50.90
36292;DHT22;22327;51.208;6.418;2022-08-30T10:26:13;27.40;52.30
36292;DHT22;22327;51.208;6.418;2022-08-30T10:28:48;27.30;53.30
36292;DHT22;22327;51.208;6.418;2022-08-30T10:31:39;27.40;52.40
36292;DHT22;22327;51.208;6.418;2022-08-30T10:34:17;27.30;52.70
36292;DHT22;22327;51.208;6.418;2022-08-30T10:36:55;27.20;52.70
36292;DHT22;22327;51.208;6.418;2022-08-30T10:39:24;27.20;52.60
36292;DHT22;22327;51.208;6.418;2022-08-30T10:42:01;27.20;53.00
36292;DHT22;22327;51.208;6.418;2022-08-30T10:44:33;27.30;53.30
36292;DHT22;22327;51.208;6.418;2022-08-30T10:47:23;27.10;53.10
36292;DHT22;22327;51.208;6.418;2022-08-30T10:49:56;27.20;52.50
36292;DHT22;22327;51.208;6.418;2022-08-30T10:55:20;27.50;52.10
36292;DHT22;22327;51.208;6.418;2022-08-30T10:57:47;27.40;52.10
36292;DHT22;22327;51.208;6.418;2022-08-30T11:00:38;27.30;52.20
36292;DHT22;22327;51.208;6.418;2022-08-30T11:13:50;27.30;52.40
36292;DHT22;22327;51.208;6.418;2022-08-30T11:16:17;27.30;52.00
36292;DHT22;22327;51.208;6.418;2022-08-30T11:18:51;27.30;51.90
36292;DHT22;22327;51.208;6.418;2022-08-30T11:21:22;27.30;51.90
36292;DHT22;22327;51.208;6.418;2022-08-30T11:29:39;27.40;51.40
36292;DHT22;22327;51.208;6.418;2022-08-30T11:37:42;27.40;50.40
36292;DHT22;22327;51.208;6.418;2022-08-30T11:42:50;27.50;49.50
36292;DHT22;22327;51.208;6.418;2022-08-30T11:47:59;27.60;48.60
36292;DHT22;22327;51.208;6.418;2022-08-30T11:50:40;27.60;49.40
36292;DHT22;22327;51.208;6.418;2022-08-30T11:53:36;27.70;49.20
36292;DHT22;22327;51.208;6.418;2022-08-30T11:56:27;27.70;49.30
36292;DHT22;22327;51.208;6.418;2022-08-30T12:02:06;27.70;48.20
36292;DHT22;22327;51.208;6.418;2022-08-30T12:04:46;27.70;49.70
36292;DHT22;22327;51.208;6.418;2022-08-30T12:10:34;27.80;49.30
36292;DHT22;22327;51.208;6.418;2022-08-30T12:13:01;27.80;47.60
36292;DHT22;22327;51.208;6.418;2022-08-30T12:15:55;27.90;48.20
36292;DHT22;22327;51.208;6.418;2022-08-30T12:18:26;28.10;47.90
36292;DHT22;22327;51.208;6.418;2022-08-30T12:20:56;28.10;48.50
36292;DHT22;22327;51.208;6.418;2022-08-30T12:26:28;28.10;49.80
36292;DHT22;22327;51.208;6.418;2022-08-30T12:29:12;28.20;48.70
36292;DHT22;22327;51.208;6.418;2022-08-30T12:32:03;28.20;48.70
36292;DHT22;22327;51.208;6.418;2022-08-30T12:34:57;28.30;48.10
36292;DHT22;22327;51.208;6.418;2022-08-30T12:37:35;28.40;47.60
36292;DHT22;22327;51.208;6.418;2022-08-30T12:42:33;28.30;47.90
36292;DHT22;22327;51.208;6.418;2022-08-30T12:45:03;28.40;47.80
36292;DHT22;22327;51.208;6.418;2022-08-30T12:47:45;28.50;48.00
36292;DHT22;22327;51.208;6.418;2022-08-30T12:50:15;28.60;47.40
36292;DHT22;22327;51.208;6.418;2022-08-30T12:52:44;28.40;46.00
36292;DHT22;22327;51.208;6.418;2022-08-30T12:55:13;28.40;46.40
36292;DHT22;22327;51.208;6.418;2022-08-30T12:57:40;28.30;46.30
36292;DHT22;22327;51.208;6.418;2022-08-30T13:00:08;28.30;46.80
36292;DHT22;22327;51.208;6.418;2022-08-30T13:02:49;28.30;47.10
36292;DHT22;22327;51.208;6.418;2022-08-30T13:08:09;28.50;47.30
36292;DHT22;22327;51.208;6.418;2022-08-30T13:10:36;28.70;46.70
36292;DHT22;22327;51.208;6.418;2022-08-30T13:13:43;28.80;46.90
36292;DHT22;22327;51.208;6.418;2022-08-30T13:16:24;28.90;46.40
36292;DHT22;22327;51.208;6.418;2022-08-30T13:21:48;28.90;46.20
36292;DHT22;22327;51.208;6.418;2022-08-30T13:24:15;28.80;45.50
36292;DHT22;22327;51.208;6.418;2022-08-30T13:26:40;28.80;45.70
36292;DHT22;22327;51.208;6.418;2022-08-30T13:29:14;28.70;46.00
36292;DHT22;22327;51.208;6.418;2022-08-30T13:31:40;28.70;46.50
36292;DHT22;22327;51.208;6.418;2022-08-30T13:34:05;28.60;45.70
36292;DHT22;22327;51.208;6.418;2022-08-30T13:36:34;28.50;45.60
36292;DHT22;22327;51.208;6.418;2022-08-30T13:39:01;28.50;45.80
36292;DHT22;22327;51.208;6.418;2022-08-30T13:41:27;28.50;45.70
36292;DHT22;22327;51.208;6.418;2022-08-30T13:43:53;28.50;46.20
36292;DHT22;22327;51.208;6.418;2022-08-30T13:46:20;28.50;46.30
36292;DHT22;22327;51.208;6.418;2022-08-30T13:48:48;28.60;45.90
36292;DHT22;22327;51.208;6.418;2022-08-30T13:51:13;28.60;46.40
36292;DHT22;22327;51.208;6.418;2022-08-30T13:53:39;28.60;45.60
36292;DHT22;22327;51.208;6.418;2022-08-30T13:56:05;28.70;45.50
36292;DHT22;22327;51.208;6.418;2022-08-30T13:58:31;28.70;45.70
36292;DHT22;22327;51.208;6.418;2022-08-30T14:00:57;28.70;44.90
36292;DHT22;22327;51.208;6.418;2022-08-30T14:03:23;28.60;44.70
36292;DHT22;22327;51.208;6.418;2022-08-30T14:05:49;28.50;45.30
36292;DHT22;22327;51.208;6.418;2022-08-30T14:08:18;28.50;45.80
36292;DHT22;22327;51.208;6.418;2022-08-30T14:10:44;28.40;46.00
36292;DHT22;22327;51.208;6.418;2022-08-30T14:13:10;28.40;46.60
36292;DHT22;22327;51.208;6.418;2022-08-30T14:15:37;28.30;46.00
36292;DHT22;22327;51.208;6.418;2022-08-30T14:18:04;28.40;45.80
36292;DHT22;22327;51.208;6.418;2022-08-30T14:20:30;28.30;46.70
36292;DHT22;22327;51.208;6.418;2022-08-30T14:22:56;28.30;45.70
36292;DHT22;22327;51.208;6.418;2022-08-30T14:25:22;28.40;46.20
36292;DHT22;22327;51.208;6.418;2022-08-30T14:27:47;28.40;45.80
36292;DHT22;22327;51.208;6.418;2022-08-30T14:30:13;28.30;45.60
36292;DHT22;22327;51.208;6.418;2022-08-30T14:32:39;28.40;46.10
36292;DHT22;22327;51.208;6.418;2022-08-30T14:35:05;28.40;45.80
36292;DHT22;22327;51.208;6.418;2022-08-30T14:37:31;28.40;45.80
36292;DHT22;22327;51.208;6.418;2022-08-30T14:39:56;28.40;45.50
36292;DHT22;22327;51.208;6.418;2022-08-30T14:42:22;28.40;45.70
36292;DHT22;22327;51.208;6.418;2022-08-30T14:44:47;28.40;46.00
36292;DHT22;22327;51.208;6.418;2022-08-30T14:47:13;28.40;45.20
36292;DHT22;22327;51.208;6.418;2022-08-30T14:49:39;28.50;45.60
36292;DHT22;22327;51.208;6.418;2022-08-30T14:52:04;28.60;44.60
36292;DHT22;22327;51.208;6.418;2022-08-30T14:54:30;28.70;44.70
36292;DHT22;22327;51.208;6.418;2022-08-30T14:56:57;28.90;44.60
36292;DHT22;22327;51.208;6.418;2022-08-30T14:59:24;29.10;44.10
36292;DHT22;22327;51.208;6.418;2022-08-30T15:01:50;29.30;43.50
36292;DHT22;22327;51.208;6.418;2022-08-30T15:04:16;29.30;43.90
36292;DHT22;22327;51.208;6.418;2022-08-30T15:06:44;29.30;44.00
36292;DHT22;22327;51.208;6.418;2022-08-30T15:09:12;29.30;43.60
36292;DHT22;22327;51.208;6.418;2022-08-30T15:11:39;29.20;43.20
36292;DHT22;22327;51.208;6.418;2022-08-30T15:14:07;29.00;43.60
36292;DHT22;22327;51.208;6.418;2022-08-30T15:16:35;28.90;44.00
36292;DHT22;22327;51.208;6.418;2022-08-30T15:19:02;28.80;44.30
36292;DHT22;22327;51.208;6.418;2022-08-30T15:21:33;28.70;44.10
36292;DHT22;22327;51.208;6.418;2022-08-30T15:24:00;28.70;44.20
36292;DHT22;22327;51.208;6.418;2022-08-30T15:26:26;28.60;44.50
36292;DHT22;22327;51.208;6.418;2022-08-30T15:28:52;28.50;44.70
36292;DHT22;22327;51.208;6.418;2022-08-30T15:31:20;28.40;44.80
36292;DHT22;22327;51.208;6.418;2022-08-30T15:33:46;28.40;45.00
36292;DHT22;22327;51.208;6.418;2022-08-30T15:36:12;28.40;45.20
36292;DHT22;22327;51.208;6.418;2022-08-30T15:38:37;28.40;45.30
36292;DHT22;22327;51.208;6.418;2022-08-30T15:41:06;28.40;45.00
36292;DHT22;22327;51.208;6.418;2022-08-30T15:43:32;28.40;44.90
36292;DHT22;22327;51.208;6.418;2022-08-30T15:48:41;28.20;45.00
36292;DHT22;22327;51.208;6.418;2022-08-30T15:51:06;28.20;45.50
36292;DHT22;22327;51.208;6.418;2022-08-30T15:53:33;28.20;45.50
36292;DHT22;22327;51.208;6.418;2022-08-30T15:55:59;28.30;44.70
36292;DHT22;22327;51.208;6.418;2022-08-30T15:58:24;28.30;44.90
36292;DHT22;22327;51.208;6.418;2022-08-30T16:00:50;28.30;45.20
36292;DHT22;22327;51.208;6.418;2022-08-30T16:03:15;28.30;45.00
36292;DHT22;22327;51.208;6.418;2022-08-30T16:05:41;28.20;45.30
36292;DHT22;22327;51.208;6.418;2022-08-30T16:08:06;28.10;45.40
36292;DHT22;22327;51.208;6.418;2022-08-30T16:10:32;28.00;45.80
36292;DHT22;22327;51.208;6.418;2022-08-30T16:12:58;27.90;45.60
36292;DHT22;22327;51.208;6.418;2022-08-30T16:15:26;27.80;46.00
36292;DHT22;22327;51.208;6.418;2022-08-30T16:17:51;27.80;46.40
36292;DHT22;22327;51.208;6.418;2022-08-30T16:20:17;27.80;46.10
36292;DHT22;22327;51.208;6.418;2022-08-30T16:22:43;27.80;46.10
36292;DHT22;22327;51.208;6.418;2022-08-30T16:25:08;27.70;46.40
36292;DHT22;22327;51.208;6.418;2022-08-30T16:27:34;27.60;46.70
36292;DHT22;22327;51.208;6.418;2022-08-30T16:30:00;27.60;46.70
36292;DHT22;22327;51.208;6.418;2022-08-30T16:32:25;27.50;46.50
36292;DHT22;22327;51.208;6.418;2022-08-30T16:34:51;27.50;46.70
36292;DHT22;22327;51.208;6.418;2022-08-30T16:37:16;27.50;46.90
